sensor_id;sensor_type;location;lat;lon;timestamp;pressure;altitude;pressure_sealevel;temperature;humidity
50103;BME280;35993;52.604;10.078;2023-04-15T00:01:22;100488.91;;;7.11;100.00
50103;BME280;35993;52.604;10.078;2023-04-15T00:03:50;100489.44;;;6.93;100.00
50103;BME280;35993;52.604;10.078;2023-04-15T00:06:20;100482.38;;;6.92;100.00
50103;BME280;35993;52.604;10.078;2023-04-15T00:08:46;100486.03;;;6.77;100.00
50103;BME280;35993;52.604;10.078;2023-04-15T00:11:13;100485.59;;;6.73;100.00
50103;BME280;35993;52.604;10.078;2023-04-15T00:13:39;100481.66;;;6.76;100.00
50103;BME280;35993;52.604;10.078;2023-04-15T00:16:06;100480.00;;;6.75;100.00
50103;BME280;35993;52.604;10.078;2023-04-15T00:18:33;100478.09;;;6.69;100.00
50103;BME280;35993;52.604;10.078;2023-04-15T00:20:58;100465.44;;;6.69;100.00
50103;BME280;35993;52.604;10.078;2023-04-15T00:23:24;100464.84;;;6.74;100.00
50103;BME280;35993;52.604;10.078;2023-04-15T00:25:50;100461.53;;;6.79;100.00
50103;BME280;35993;52.604;10.078;2023-04-15T00:28:16;100462.00;;;6.82;100.00
50103;BME280;35993;52.604;10.078;2023-04-15T00:30:42;100460.13;;;6.83;100.00
50103;BME280;35993;52.604;10.078;2023-04-15T00:33:08;100459.88;;;6.78;100.00
50103;BME280;35993;52.604;10.078;2023-04-15T00:35:34;100458.63;;;6.73;100.00
50103;BME280;35993;52.604;10.078;2023-04-15T00:38:05;100458.28;;;6.90;100.00
50103;BME280;35993;52.604;10.078;2023-04-15T00:40:32;100459.53;;;6.87;100.00
50103;BME280;35993;52.604;10.078;2023-04-15T00:42:58;100453.09;;;6.88;100.00
50103;BME280;35993;52.604;10.078;2023-04-15T00:45:25;100456.81;;;6.87;100.00
50103;BME280;35993;52.604;10.078;2023-04-15T00:47:50;100459.69;;;6.79;100.00
50103;BME280;35993;52.604;10.078;2023-04-15T00:50:16;100461.16;;;6.82;100.00
50103;BME280;35993;52.604;10.078;2023-04-15T00:52:42;100457.41;;;6.83;100.00
50103;BME280;35993;52.604;10.078;2023-04-15T00:55:09;100454.91;;;6.81;100.00
50103;BME280;35993;52.604;10.078;2023-04-15T00:57:35;100452.09;;;6.89;100.00
50103;BME280;35993;52.604;10.078;2023-04-15T01:00:01;100454.00;;;6.96;100.00
50103;BME280;35993;52.604;10.078;2023-04-15T01:02:30;100459.63;;;7.01;100.00
50103;BME280;35993;52.604;10.078;2023-04-15T01:04:56;100460.47;;;7.08;100.00
50103;BME280;35993;52.604;10.078;2023-04-15T01:07:21;100452.09;;;6.96;100.00
50103;BME280;35993;52.604;10.078;2023-04-15T01:09:47;100449.38;;;6.89;100.00
50103;BME280;35993;52.604;10.078;2023-04-15T01:12:13;100451.94;;;7.04;100.00
50103;BME280;35993;52.604;10.078;2023-04-15T01:14:40;100448.16;;;6.92;100.00
50103;BME280;35993;52.604;10.078;2023-04-15T01:17:06;100444.22;;;6.95;100.00
50103;BME280;35993;52.604;10.078;2023-04-15T01:19:32;100446.28;;;6.99;100.00
50103;BME280;35993;52.604;10.078;2023-04-15T01:21:57;100439.63;;;6.95;100.00
50103;BME280;35993;52.604;10.078;2023-04-15T01:24:25;100441.13;;;7.04;100.00
50103;BME280;35993;52.604;10.078;2023-04-15T01:26:53;100441.19;;;7.11;100.00
50103;BME280;35993;52.604;10.078;2023-04-15T01:29:18;100436.81;;;7.10;100.00
50103;BME280;35993;52.604;10.078;2023-04-15T01:31:50;100447.81;;;7.09;100.00
50103;BME280;35993;52.604;10.078;2023-04-15T01:34:35;100444.28;;;7.08;100.00
50103;BME280;35993;52.604;10.078;2023-04-15T01:37:20;100445.28;;;7.07;100.00
50103;BME280;35993;52.604;10.078;2023-04-15T01:39:45;100439.50;;;7.10;100.00
50103;BME280;35993;52.604;10.078;2023-04-15T01:42:11;100434.72;;;7.12;100.00
50103;BME280;35993;52.604;10.078;2023-04-15T01:44:37;100442.03;;;7.18;100.00
50103;BME280;35993;52.604;10.078;2023-04-15T01:47:04;100432.22;;;7.11;100.00
50103;BME280;35993;52.604;10.078;2023-04-15T01:49:32;100431.19;;;7.05;100.00
50103;BME280;35993;52.604;10.078;2023-04-15T01:52:00;100435.13;;;7.09;100.00
50103;BME280;35993;52.604;10.078;2023-04-15T01:54:27;100427.47;;;7.06;100.00
50103;BME280;35993;52.604;10.078;2023-04-15T01:56:54;100426.41;;;7.07;100.00
50103;BME280;35993;52.604;10.078;2023-04-15T01:59:22;100426.84;;;7.11;100.00
50103;BME280;35993;52.604;10.078;2023-04-15T02:01:48;100428.06;;;7.08;100.00
50103;BME280;35993;52.604;10.078;2023-04-15T02:04:15;100422.66;;;7.01;100.00
50103;BME280;35993;52.604;10.078;2023-04-15T02:06:43;100415.13;;;6.90;100.00
50103;BME280;35993;52.604;10.078;2023-04-15T02:09:10;100418.25;;;6.94;100.00
50103;BME280;35993;52.604;10.078;2023-04-15T02:11:37;100410.75;;;6.89;100.00
50103;BME280;35993;52.604;10.078;2023-04-15T02:18:10;100417.19;;;6.88;100.00
50103;BME280;35993;52.604;10.078;2023-04-15T02:20:37;100418.03;;;6.88;100.00
50103;BME280;35993;52.604;10.078;2023-04-15T02:23:04;100413.78;;;6.72;100.00
50103;BME280;35993;52.604;10.078;2023-04-15T02:25:32;100412.94;;;6.65;100.00
50103;BME280;35993;52.604;10.078;2023-04-15T02:27:59;100415.22;;;6.68;100.00
50103;BME280;35993;52.604;10.078;2023-04-15T02:30:26;100405.03;;;6.64;100.00
50103;BME280;35993;52.604;10.078;2023-04-15T02:32:53;100405.06;;;6.70;100.00
50103;BME280;35993;52.604;10.078;2023-04-15T02:35:20;100405.84;;;6.64;100.00
50103;BME280;35993;52.604;10.078;2023-04-15T02:37:47;100400.50;;;6.71;100.00
50103;BME280;35993;52.604;10.078;2023-04-15T02:40:13;100399.13;;;6.82;100.00
50103;BME280;35993;52.604;10.078;2023-04-15T02:42:41;100401.75;;;6.75;100.00
50103;BME280;35993;52.604;10.078;2023-04-15T02:45:11;100410.28;;;6.79;100.00
50103;BME280;35993;52.604;10.078;2023-04-15T02:47:39;100409.47;;;6.78;100.00
50103;BME280;35993;52.604;10.078;2023-04-15T02:50:11;100404.88;;;6.79;100.00
50103;BME280;35993;52.604;10.078;2023-04-15T02:52:40;100407.34;;;6.73;100.00
50103;BME280;35993;52.604;10.078;2023-04-15T02:55:07;100413.78;;;6.72;100.00
50103;BME280;35993;52.604;10.078;2023-04-15T02:57:36;100414.63;;;6.73;100.00
50103;BME280;35993;52.604;10.078;2023-04-15T03:00:07;100407.59;;;6.79;100.00
50103;BME280;35993;52.604;10.078;2023-04-15T03:02:37;100419.00;;;6.74;100.00
50103;BME280;35993;52.604;10.078;2023-04-15T03:05:05;100417.31;;;6.73;100.00
50103;BME280;35993;52.604;10.078;2023-04-15T03:07:32;100413.84;;;6.79;100.00
50103;BME280;35993;52.604;10.078;2023-04-15T03:10:00;100416.47;;;6.72;100.00
50103;BME280;35993;52.604;10.078;2023-04-15T03:12:27;100416.47;;;6.72;100.00
50103;BME280;35993;52.604;10.078;2023-04-15T03:14:56;100417.09;;;6.68;100.00
50103;BME280;35993;52.604;10.078;2023-04-15T03:17:32;100413.94;;;6.64;100.00
50103;BME280;35993;52.604;10.078;2023-04-15T03:20:01;100412.13;;;6.71;100.00
50103;BME280;35993;52.604;10.078;2023-04-15T03:22:28;100404.06;;;6.78;100.00
50103;BME280;35993;52.604;10.078;2023-04-15T03:24:55;100406.31;;;6.75;100.00
50103;BME280;35993;52.604;10.078;2023-04-15T03:27:22;100405.06;;;6.70;100.00
50103;BME280;35993;52.604;10.078;2023-04-15T03:29:50;100406.75;;;6.71;100.00
50103;BME280;35993;52.604;10.078;2023-04-15T03:32:18;100405.31;;;6.76;100.00
50103;BME280;35993;52.604;10.078;2023-04-15T03:34:44;100403.84;;;6.73;100.00
50103;BME280;35993;52.604;10.078;2023-04-15T03:37:11;100395.53;;;6.75;100.00
50103;BME280;35993;52.604;10.078;2023-04-15T03:39:38;100410.91;;;6.74;100.00
50103;BME280;35993;52.604;10.078;2023-04-15T03:42:05;100407.16;;;6.75;100.00
50103;BME280;35993;52.604;10.078;2023-04-15T03:44:32;100414.00;;;6.78;100.00
50103;BME280;35993;52.604;10.078;2023-04-15T03:46:58;100410.72;;;6.82;100.00
50103;BME280;35993;52.604;10.078;2023-04-15T03:49:25;100415.91;;;6.84;100.00
50103;BME280;35993;52.604;10.078;2023-04-15T03:51:52;100425.25;;;6.81;100.00
50103;BME280;35993;52.604;10.078;2023-04-15T03:54:19;100422.09;;;6.78;100.00
50103;BME280;35993;52.604;10.078;2023-04-15T03:56:46;100415.66;;;6.72;100.00
50103;BME280;35993;52.604;10.078;2023-04-15T03:59:13;100425.84;;;6.77;100.00
50103;BME280;35993;52.604;10.078;2023-04-15T04:01:39;100425.66;;;6.78;100.00
50103;BME280;35993;52.604;10.078;2023-04-15T04:04:06;100419.00;;;6.74;100.00
50103;BME280;35993;52.604;10.078;2023-04-15T04:06:33;100423.56;;;6.80;100.00
50103;BME280;35993;52.604;10.078;2023-04-15T04:09:00;100423.50;;;6.67;100.00
50103;BME280;35993;52.604;10.078;2023-04-15T04:11:27;100420.97;;;6.59;100.00
50103;BME280;35993;52.604;10.078;2023-04-15T04:13:53;100421.63;;;6.67;100.00
50103;BME280;35993;52.604;10.078;2023-04-15T04:16:20;100418.31;;;6.65;100.00
50103;BME280;35993;52.604;10.078;2023-04-15T04:18:47;100421.22;;;6.64;100.00
50103;BME280;35993;52.604;10.078;2023-04-15T04:21:14;100427.00;;;6.61;100.00
50103;BME280;35993;52.604;10.078;2023-04-15T04:23:41;100423.47;;;6.60;100.00
50103;BME280;35993;52.604;10.078;2023-04-15T04:26:08;100424.50;;;6.59;100.00
50103;BME280;35993;52.604;10.078;2023-04-15T04:28:35;100422.63;;;6.60;100.00
50103;BME280;35993;52.604;10.078;2023-04-15T04:31:02;100418.66;;;6.55;100.00
50103;BME280;35993;52.604;10.078;2023-04-15T04:33:28;100431.13;;;6.56;100.00
50103;BME280;35993;52.604;10.078;2023-04-15T04:35:55;100427.03;;;6.67;100.00
50103;BME280;35993;52.604;10.078;2023-04-15T04:38:22;100419.78;;;6.68;100.00
50103;BME280;35993;52.604;10.078;2023-04-15T04:40:49;100422.47;;;6.68;100.00
50103;BME280;35993;52.604;10.078;2023-04-15T04:43:16;100418.34;;;6.72;100.00
50103;BME280;35993;52.604;10.078;2023-04-15T04:45:43;100421.28;;;6.77;100.00
50103;BME280;35993;52.604;10.078;2023-04-15T04:48:10;100420.41;;;6.70;100.00
50103;BME280;35993;52.604;10.078;2023-04-15T04:50:37;100420.03;;;6.73;100.00
50103;BME280;35993;52.604;10.078;2023-04-15T04:53:03;100414.59;;;6.66;100.00
50103;BME280;35993;52.604;10.078;2023-04-15T04:55:30;100414.16;;;6.63;100.00
50103;BME280;35993;52.604;10.078;2023-04-15T04:57:57;100420.41;;;6.70;100.00
50103;BME280;35993;52.604;10.078;2023-04-15T05:00:24;100425.19;;;6.68;100.00
50103;BME280;35993;52.604;10.078;2023-04-15T05:02:51;100413.53;;;6.67;100.00
50103;BME280;35993;52.604;10.078;2023-04-15T05:05:18;100423.09;;;6.70;100.00
50103;BME280;35993;52.604;10.078;2023-04-15T05:07:45;100424.19;;;6.76;100.00
50103;BME280;35993;52.604;10.078;2023-04-15T05:10:12;100424.53;;;6.66;100.00
50103;BME280;35993;52.604;10.078;2023-04-15T05:12:40;100427.22;;;6.66;100.00
50103;BME280;35993;52.604;10.078;2023-04-15T05:15:08;100424.91;;;6.56;100.00
50103;BME280;35993;52.604;10.078;2023-04-15T05:17:35;100409.97;;;6.53;100.00
50103;BME280;35993;52.604;10.078;2023-04-15T05:20:02;100418.91;;;6.61;100.00
50103;BME280;35993;52.604;10.078;2023-04-15T05:22:30;100413.06;;;6.57;100.00
50103;BME280;35993;52.604;10.078;2023-04-15T05:24:57;100409.09;;;6.53;100.00
50103;BME280;35993;52.604;10.078;2023-04-15T05:27:23;100411.34;;;6.49;100.00
50103;BME280;35993;52.604;10.078;2023-04-15T05:29:51;100409.13;;;6.60;100.00
50103;BME280;35993;52.604;10.078;2023-04-15T05:32:17;100412.06;;;6.65;100.00
50103;BME280;35993;52.604;10.078;2023-04-15T05:34:44;100413.91;;;6.58;100.00
50103;BME280;35993;52.604;10.078;2023-04-15T05:37:11;100413.06;;;6.57;100.00
50103;BME280;35993;52.604;10.078;2023-04-15T05:39:38;100406.44;;;6.60;100.00
50103;BME280;35993;52.604;10.078;2023-04-15T05:42:05;100404.81;;;6.59;100.00
50103;BME280;35993;52.604;10.078;2023-04-15T05:44:32;100401.03;;;6.60;100.00
50103;BME280;35993;52.604;10.078;2023-04-15T05:46:59;100404.72;;;6.52;100.00
50103;BME280;35993;52.604;10.078;2023-04-15T05:49:26;100403.50;;;6.54;100.00
50103;BME280;35993;52.604;10.078;2023-04-15T05:51:53;100401.47;;;6.56;100.00
50103;BME280;35993;52.604;10.078;2023-04-15T05:54:19;100403.94;;;6.58;100.00
50103;BME280;35993;52.604;10.078;2023-04-15T05:56:48;100405.41;;;6.61;100.00
50103;BME280;35993;52.604;10.078;2023-04-15T05:59:15;100410.38;;;6.57;100.00
50103;BME280;35993;52.604;10.078;2023-04-15T06:01:42;100411.66;;;6.61;100.00
50103;BME280;35993;52.604;10.078;2023-04-15T06:04:09;100415.00;;;6.70;100.00
50103;BME280;35993;52.604;10.078;2023-04-15T06:06:37;100418.28;;;6.59;100.00
50103;BME280;35993;52.604;10.078;2023-04-15T06:09:04;100416.84;;;6.63;100.00
50103;BME280;35993;52.604;10.078;2023-04-15T06:11:31;100421.84;;;6.66;100.00
50103;BME280;35993;52.604;10.078;2023-04-15T06:13:57;100426.66;;;6.70;100.00
50103;BME280;35993;52.604;10.078;2023-04-15T06:16:24;100428.16;;;6.80;100.00
50103;BME280;35993;52.604;10.078;2023-04-15T06:18:51;100430.28;;;6.91;100.00
50103;BME280;35993;52.604;10.078;2023-04-15T06:21:18;100436.91;;;6.88;100.00
50103;BME280;35993;52.604;10.078;2023-04-15T06:23:45;100434.66;;;6.92;100.00
50103;BME280;35993;52.604;10.078;2023-04-15T06:26:12;100443.09;;;6.82;100.00
50103;BME280;35993;52.604;10.078;2023-04-15T06:28:38;100435.22;;;6.81;100.00
50103;BME280;35993;52.604;10.078;2023-04-15T06:31:05;100454.13;;;6.87;100.00
50103;BME280;35993;52.604;10.078;2023-04-15T06:33:32;100456.47;;;6.97;100.00
50103;BME280;35993;52.604;10.078;2023-04-15T06:35:59;100455.63;;;6.97;100.00
50103;BME280;35993;52.604;10.078;2023-04-15T06:38:26;100454.00;;;6.96;100.00
50103;BME280;35993;52.604;10.078;2023-04-15T06:40:53;100457.41;;;6.83;100.00
50103;BME280;35993;52.604;10.078;2023-04-15T06:43:19;100449.59;;;6.88;100.00
50103;BME280;35993;52.604;10.078;2023-04-15T06:45:46;100457.94;;;7.00;100.00
50103;BME280;35993;52.604;10.078;2023-04-15T06:48:13;100457.94;;;7.00;100.00
50103;BME280;35993;52.604;10.078;2023-04-15T06:50:40;100453.75;;;6.91;100.00
50103;BME280;35993;52.604;10.078;2023-04-15T06:53:07;100459.19;;;6.97;100.00
50103;BME280;35993;52.604;10.078;2023-04-15T06:55:34;100454.63;;;7.04;100.00
50103;BME280;35993;52.604;10.078;2023-04-15T06:58:00;100456.50;;;7.04;100.00
50103;BME280;35993;52.604;10.078;2023-04-15T07:00:27;100454.84;;;7.03;100.00
50103;BME280;35993;52.604;10.078;2023-04-15T07:02:54;100458.75;;;7.00;100.00
50103;BME280;35993;52.604;10.078;2023-04-15T07:05:21;100454.00;;;6.96;100.00
50103;BME280;35993;52.604;10.078;2023-04-15T07:07:48;100460.22;;;7.03;100.00
50103;BME280;35993;52.604;10.078;2023-04-15T07:10:15;100465.25;;;7.06;100.00
50103;BME280;35993;52.604;10.078;2023-04-15T07:12:42;100462.56;;;7.06;100.00
50103;BME280;35993;52.604;10.078;2023-04-15T07:15:09;100466.31;;;7.12;100.00
50103;BME280;35993;52.604;10.078;2023-04-15T07:17:36;100464.06;;;7.22;100.00
50103;BME280;35993;52.604;10.078;2023-04-15T07:20:04;100470.34;;;7.29;100.00
50103;BME280;35993;52.604;10.078;2023-04-15T07:22:31;100463.91;;;7.30;100.00
50103;BME280;35993;52.604;10.078;2023-04-15T07:24:58;100461.59;;;7.27;100.00
50103;BME280;35993;52.604;10.078;2023-04-15T07:27:25;100466.59;;;7.30;100.00
50103;BME280;35993;52.604;10.078;2023-04-15T07:29:52;100466.41;;;7.38;100.00
50103;BME280;35993;52.604;10.078;2023-04-15T07:32:19;100465.78;;;7.36;100.00
50103;BME280;35993;52.604;10.078;2023-04-15T07:34:46;100466.63;;;7.37;100.00
50103;BME280;35993;52.604;10.078;2023-04-15T07:37:14;100469.31;;;7.37;100.00
50103;BME280;35993;52.604;10.078;2023-04-15T07:39:40;100471.59;;;7.40;100.00
50103;BME280;35993;52.604;10.078;2023-04-15T07:42:08;100460.59;;;7.42;100.00
50103;BME280;35993;52.604;10.078;2023-04-15T07:44:35;100471.22;;;7.43;100.00
50103;BME280;35993;52.604;10.078;2023-04-15T07:47:02;100468.69;;;7.42;100.00
50103;BME280;35993;52.604;10.078;2023-04-15T07:49:29;100474.34;;;7.47;100.00
50103;BME280;35993;52.604;10.078;2023-04-15T07:51:56;100483.28;;;7.47;100.00
50103;BME280;35993;52.604;10.078;2023-04-15T07:54:25;100482.47;;;7.47;100.00
50103;BME280;35993;52.604;10.078;2023-04-15T07:56:52;100475.56;;;7.44;100.00
50103;BME280;35993;52.604;10.078;2023-04-15T07:59:19;100480.56;;;7.47;100.00
50103;BME280;35993;52.604;10.078;2023-04-15T08:01:47;100481.44;;;7.54;100.00
50103;BME280;35993;52.604;10.078;2023-04-15T08:04:14;100472.28;;;7.55;100.00
50103;BME280;35993;52.604;10.078;2023-04-15T08:06:41;100491.41;;;7.54;100.00
50103;BME280;35993;52.604;10.078;2023-04-15T08:09:08;100491.59;;;7.52;100.00
50103;BME280;35993;52.604;10.078;2023-04-15T08:11:35;100494.09;;;7.54;100.00
50103;BME280;35993;52.604;10.078;2023-04-15T08:14:02;100481.66;;;7.60;100.00
50103;BME280;35993;52.604;10.078;2023-04-15T08:16:28;100481.47;;;7.61;100.00
50103;BME280;35993;52.604;10.078;2023-04-15T08:18:55;100496.00;;;7.60;100.00
50103;BME280;35993;52.604;10.078;2023-04-15T08:21:23;100490.59;;;7.60;100.00
50103;BME280;35993;52.604;10.078;2023-04-15T08:23:52;100506.00;;;7.66;100.00
50103;BME280;35993;52.604;10.078;2023-04-15T08:26:19;100503.09;;;7.75;100.00
50103;BME280;35993;52.604;10.078;2023-04-15T08:28:47;100501.84;;;7.77;100.00
50103;BME280;35993;52.604;10.078;2023-04-15T08:31:15;100505.19;;;7.79;100.00
50103;BME280;35993;52.604;10.078;2023-04-15T08:33:42;100501.06;;;7.83;100.00
50103;BME280;35993;52.604;10.078;2023-04-15T08:36:09;100505.22;;;7.86;100.00
50103;BME280;35993;52.604;10.078;2023-04-15T08:38:36;100504.63;;;7.91;100.00
50103;BME280;35993;52.604;10.078;2023-04-15T08:41:09;100498.38;;;7.97;100.00
50103;BME280;35993;52.604;10.078;2023-04-15T08:43:51;100498.38;;;7.97;100.00
50103;BME280;35993;52.604;10.078;2023-04-15T08:46:20;100493.19;;;8.02;100.00
50103;BME280;35993;52.604;10.078;2023-04-15T08:48:47;100496.72;;;8.02;100.00
50103;BME280;35993;52.604;10.078;2023-04-15T08:51:18;100498.19;;;8.05;100.00
50103;BME280;35993;52.604;10.078;2023-04-15T08:53:46;100504.22;;;8.07;100.00
50103;BME280;35993;52.604;10.078;2023-04-15T08:56:14;100496.53;;;8.11;100.00
50103;BME280;35993;52.604;10.078;2023-04-15T08:58:45;100508.19;;;8.18;100.00
50103;BME280;35993;52.604;10.078;2023-04-15T09:01:12;100510.88;;;8.18;100.00
50103;BME280;35993;52.604;10.078;2023-04-15T09:03:39;100511.31;;;8.22;100.00
50103;BME280;35993;52.604;10.078;2023-04-15T09:06:06;100514.44;;;8.25;100.00
50103;BME280;35993;52.604;10.078;2023-04-15T09:08:33;100517.16;;;8.25;100.00
50103;BME280;35993;52.604;10.078;2023-04-15T09:11:02;100516.94;;;8.27;100.00
50103;BME280;35993;52.604;10.078;2023-04-15T09:13:29;100515.91;;;8.28;100.00
50103;BME280;35993;52.604;10.078;2023-04-15T09:15:56;100527.97;;;8.25;100.00
50103;BME280;35993;52.604;10.078;2023-04-15T09:18:30;100531.09;;;8.29;100.00
50103;BME280;35993;52.604;10.078;2023-04-15T09:21:05;100533.97;;;8.27;100.00
50103;BME280;35993;52.604;10.078;2023-04-15T09:23:35;100533.16;;;8.27;100.00
50103;BME280;35993;52.604;10.078;2023-04-15T09:26:02;100540.66;;;8.31;100.00
50103;BME280;35993;52.604;10.078;2023-04-15T09:28:29;100539.81;;;8.31;100.00
50103;BME280;35993;52.604;10.078;2023-04-15T09:33:24;100543.97;;;8.33;100.00
50103;BME280;35993;52.604;10.078;2023-04-15T09:36:02;100543.59;;;8.36;100.00
50103;BME280;35993;52.604;10.078;2023-04-15T09:38:31;100551.50;;;8.38;100.00
50103;BME280;35993;52.604;10.078;2023-04-15T09:40:58;100552.53;;;8.37;100.00
50103;BME280;35993;52.604;10.078;2023-04-15T09:43:38;100556.06;;;8.44;100.00
50103;BME280;35993;52.604;10.078;2023-04-15T09:46:05;100561.09;;;8.47;100.00
50103;BME280;35993;52.604;10.078;2023-04-15T09:48:32;100565.69;;;8.47;100.00
50103;BME280;35993;52.604;10.078;2023-04-15T09:51:00;100563.41;;;8.50;100.00
50103;BME280;35993;52.604;10.078;2023-04-15T09:53:27;100567.34;;;8.48;100.00
50103;BME280;35993;52.604;10.078;2023-04-15T09:55:56;100567.75;;;8.51;100.00
50103;BME280;35993;52.604;10.078;2023-04-15T09:58:28;100559.84;;;8.50;100.00
50103;BME280;35993;52.604;10.078;2023-04-15T10:00:56;100567.56;;;8.53;100.00
50103;BME280;35993;52.604;10.078;2023-04-15T10:03:30;100569.03;;;8.56;100.00
50103;BME280;35993;52.604;10.078;2023-04-15T10:05:59;100564.84;;;8.60;100.00
50103;BME280;35993;52.604;10.078;2023-04-15T10:08:27;100564.44;;;8.63;100.00
50103;BME280;35993;52.604;10.078;2023-04-15T10:10:54;100559.44;;;8.66;100.00
50103;BME280;35993;52.604;10.078;2023-04-15T10:13:25;100573.19;;;8.65;100.00
50103;BME280;35993;52.604;10.078;2023-04-15T10:15:57;100564.41;;;8.69;100.00
50103;BME280;35993;52.604;10.078;2023-04-15T10:18:26;100561.31;;;8.79;100.00
50103;BME280;35993;52.604;10.078;2023-04-15T10:20:53;100561.09;;;8.81;100.00
50103;BME280;35993;52.604;10.078;2023-04-15T10:23:21;100561.31;;;8.79;100.00
50103;BME280;35993;52.604;10.078;2023-04-15T10:25:51;100571.09;;;8.80;100.00
50103;BME280;35993;52.604;10.078;2023-04-15T10:28:18;100569.03;;;8.82;100.00
50103;BME280;35993;52.604;10.078;2023-04-15T10:30:45;100567.78;;;8.85;100.00
50103;BME280;35993;52.604;10.078;2023-04-15T10:33:14;100565.66;;;8.87;100.00
50103;BME280;35993;52.604;10.078;2023-04-15T10:35:43;100565.66;;;8.94;100.00
50103;BME280;35993;52.604;10.078;2023-04-15T10:41:15;100569.41;;;8.99;100.00
50103;BME280;35993;52.604;10.078;2023-04-15T10:46:38;100574.81;;;9.06;100.00
50103;BME280;35993;52.604;10.078;2023-04-15T10:51:38;100570.44;;;9.12;100.00
50103;BME280;35993;52.604;10.078;2023-04-15T10:54:15;100570.44;;;9.18;100.00
50103;BME280;35993;52.604;10.078;2023-04-15T10:56:44;100580.03;;;9.14;100.00
50103;BME280;35993;52.604;10.078;2023-04-15T10:59:11;100573.16;;;9.12;100.00
50103;BME280;35993;52.604;10.078;2023-04-15T11:01:55;100583.75;;;9.20;100.00
50103;BME280;35993;52.604;10.078;2023-04-15T11:04:56;100586.91;;;9.17;100.00
50103;BME280;35993;52.604;10.078;2023-04-15T11:12:44;100591.03;;;9.26;100.00
50103;BME280;35993;52.604;10.078;2023-04-15T11:15:30;100589.81;;;9.22;100.00
50103;BME280;35993;52.604;10.078;2023-04-15T11:18:15;100606.88;;;9.29;100.00
50103;BME280;35993;52.604;10.078;2023-04-15T11:20:47;100608.31;;;9.32;100.00
50103;BME280;35993;52.604;10.078;2023-04-15T11:23:16;100610.00;;;9.26;100.00
50103;BME280;35993;52.604;10.078;2023-04-15T11:25:43;100610.00;;;9.33;100.00
50103;BME280;35993;52.604;10.078;2023-04-15T11:28:11;100615.00;;;9.36;100.00
50103;BME280;35993;52.604;10.078;2023-04-15T11:30:39;100626.03;;;9.34;100.00
50103;BME280;35993;52.604;10.078;2023-04-15T11:33:09;100626.88;;;9.35;100.00
50103;BME280;35993;52.604;10.078;2023-04-15T11:35:40;100634.59;;;9.31;100.00
50103;BME280;35993;52.604;10.078;2023-04-15T11:38:08;100634.78;;;9.37;100.00
50103;BME280;35993;52.604;10.078;2023-04-15T11:40:36;100640.00;;;9.38;100.00
50103;BME280;35993;52.604;10.078;2023-04-15T11:45:48;100639.16;;;9.38;100.00
50103;BME280;35993;52.604;10.078;2023-04-15T11:48:15;100643.13;;;9.42;100.00
50103;BME280;35993;52.604;10.078;2023-04-15T11:50:41;100650.00;;;9.44;100.00
50103;BME280;35993;52.604;10.078;2023-04-15T11:53:09;100653.94;;;9.42;100.00
50103;BME280;35993;52.604;10.078;2023-04-15T11:55:43;100654.59;;;9.44;100.00
50103;BME280;35993;52.604;10.078;2023-04-15T11:58:15;100654.16;;;9.47;100.00
50103;BME280;35993;52.604;10.078;2023-04-15T12:00:46;100658.72;;;9.53;100.00
50103;BME280;35993;52.604;10.078;2023-04-15T12:03:25;100661.63;;;9.58;100.00
50103;BME280;35993;52.604;10.078;2023-04-15T12:06:03;100659.34;;;9.62;100.00
50103;BME280;35993;52.604;10.078;2023-04-15T12:14:11;100663.44;;;9.91;100.00
50103;BME280;35993;52.604;10.078;2023-04-15T12:16:43;100662.97;;;10.01;100.00
50103;BME280;35993;52.604;10.078;2023-04-15T12:19:12;100665.41;;;10.16;100.00
50103;BME280;35993;52.604;10.078;2023-04-15T12:21:40;100669.16;;;10.15;100.00
50103;BME280;35993;52.604;10.078;2023-04-15T12:24:08;100671.09;;;10.01;100.00
50103;BME280;35993;52.604;10.078;2023-04-15T12:26:48;100673.44;;;9.97;100.00
50103;BME280;35993;52.604;10.078;2023-04-15T12:29:15;100679.63;;;10.05;100.00
50103;BME280;35993;52.604;10.078;2023-04-15T12:31:49;100676.28;;;10.09;100.00
50103;BME280;35993;52.604;10.078;2023-04-15T12:34:17;100672.09;;;10.13;100.00
50103;BME280;35993;52.604;10.078;2023-04-15T12:36:42;100678.97;;;10.16;100.00
50103;BME280;35993;52.604;10.078;2023-04-15T12:39:08;100673.09;;;10.19;100.00
50103;BME280;35993;52.604;10.078;2023-04-15T12:41:34;100675.19;;;10.24;100.00
50103;BME280;35993;52.604;10.078;2023-04-15T12:43:59;100665.34;;;10.36;100.00
50103;BME280;35993;52.604;10.078;2023-04-15T12:46:26;100679.81;;;10.62;100.00
50103;BME280;35993;52.604;10.078;2023-04-15T12:48:52;100683.06;;;10.77;100.00
50103;BME280;35993;52.604;10.078;2023-04-15T12:51:18;100680.03;;;10.92;100.00
50103;BME280;35993;52.604;10.078;2023-04-15T12:53:45;100683.50;;;11.06;100.00
50103;BME280;35993;52.604;10.078;2023-04-15T12:56:12;100680.88;;;11.18;100.00
50103;BME280;35993;52.604;10.078;2023-04-15T12:58:37;100684.91;;;11.34;100.00
50103;BME280;35993;52.604;10.078;2023-04-15T13:01:03;100692.81;;;11.42;100.00
50103;BME280;35993;52.604;10.078;2023-04-15T13:03:28;100689.59;;;11.52;100.00
50103;BME280;35993;52.604;10.078;2023-04-15T13:05:54;100684.34;;;11.51;100.00
50103;BME280;35993;52.604;10.078;2023-04-15T13:08:19;100685.78;;;11.53;100.00
50103;BME280;35993;52.604;10.078;2023-04-15T13:10:45;100690.88;;;11.68;100.00
50103;BME280;35993;52.604;10.078;2023-04-15T13:13:11;100691.19;;;11.78;100.00